Time;durP1;ratioP1;P1;durP2;ratioP2;P2;SDS_P1;SDS_P2;PMS_P1;PMS_P2;Temp;Humidity;BMP_temperature;BMP_pressure;BME280_temperature;BME280_humidity;BME280_pressure;Samples;Min_cycle;Max_cycle;Signal;HPM_P1;HPM_P2
2022/05/14 00:00:48;;;;;;;8.50;3.42;;;13.20;99.90;;;;;;5037667;28;20064;-73
2022/05/14 00:03:14;;;;;;;10.95;3.58;;;13.10;99.90;;;;;;5037675;28;20128;-73
2022/05/14 00:05:40;;;;;;;10.27;3.95;;;13.10;99.90;;;;;;5053328;28;20564;-73
2022/05/14 00:08:06;;;;;;;11.90;4.13;;;13.00;99.90;;;;;;5053845;28;20120;-73
2022/05/14 00:10:32;;;;;;;8.30;3.30;;;12.90;99.90;;;;;;5036858;28;20033;-73
2022/05/14 00:13:04;;;;;;;11.60;3.50;;;12.90;99.90;;;;;;5049578;28;20091;-73
2022/05/14 00:15:40;;;;;;;13.40;4.68;;;12.90;99.90;;;;;;5033917;28;20041;-73
2022/05/14 00:18:08;;;;;;;10.73;3.58;;;13.10;99.90;;;;;;5048767;28;20037;-73
2022/05/14 00:20:36;;;;;;;13.07;3.92;;;13.10;99.90;;;;;;5036408;28;20044;-73
2022/05/14 00:23:03;;;;;;;11.07;3.83;;;13.00;99.90;;;;;;5037254;28;20120;-73
2022/05/14 00:25:29;;;;;;;8.63;3.67;;;12.80;99.90;;;;;;5053729;28;20044;-73
2022/05/14 00:27:55;;;;;;;9.85;3.53;;;12.80;99.90;;;;;;5036452;28;20067;-73
2022/05/14 00:30:27;;;;;;;9.27;3.70;;;12.70;99.90;;;;;;5036095;28;20123;-73
2022/05/14 00:32:53;;;;;;;;;;;12.60;99.90;;;;;;5054129;28;20056;-73
2022/05/14 00:35:19;;;;;;;11.40;3.53;;;12.60;99.90;;;;;;5053528;28;19917;-74
2022/05/14 00:37:45;;;;;;;11.20;3.42;;;12.70;99.90;;;;;;5052503;28;20032;-73
2022/05/14 00:40:20;;;;;;;10.35;4.18;;;12.80;99.90;;;;;;5036029;28;20049;-74
2022/05/14 00:42:46;;;;;;;12.02;4.15;;;12.80;99.90;;;;;;5036794;28;20089;-74
2022/05/14 00:45:14;;;;;;;9.60;3.42;;;12.80;99.90;;;;;;5036897;28;20033;-74
2022/05/14 00:47:42;;;;;;;10.77;3.40;;;12.80;99.90;;;;;;5035885;28;20041;-73
2022/05/14 00:50:22;;;;;;;10.60;3.80;;;12.70;99.90;;;;;;5035833;28;20045;-73
2022/05/14 00:52:48;;;;;;;11.25;3.90;;;12.80;99.90;;;;;;5036624;28;20627;-74
2022/05/14 00:55:13;;;;;;;10.77;4.05;;;12.60;99.90;;;;;;5053192;28;20124;-73
2022/05/14 00:57:41;;;;;;;11.20;3.88;;;12.50;99.90;;;;;;5052292;28;20069;-73
2022/05/14 01:00:14;;;;;;;12.15;3.80;;;12.30;99.90;;;;;;5050598;28;20045;-73
2022/05/14 01:02:39;;;;;;;11.93;3.80;;;12.30;99.90;;;;;;5036342;28;20052;-73
2022/05/14 01:05:07;;;;;;;13.32;3.55;;;12.30;99.90;;;;;;5052031;28;20037;-73
2022/05/14 01:07:33;;;;;;;13.13;3.70;;;12.40;99.90;;;;;;5052900;28;20513;-73
2022/05/14 01:10:03;;;;;;;10.35;3.65;;;12.60;99.90;;;;;;5035443;28;20132;-73
2022/05/14 01:12:30;;;;;;;9.93;3.63;;;12.50;99.90;;;;;;5036296;28;20044;-73
2022/05/14 01:15:07;;;;;;;11.93;4.22;;;12.40;99.90;;;;;;5036183;28;20523;-73
2022/05/14 01:17:33;;;;;;;12.70;3.65;;;12.30;99.90;;;;;;5035550;28;20044;-73
2022/05/14 01:19:58;;;;;;;10.88;3.55;;;12.20;99.90;;;;;;5035294;28;20041;-73
2022/05/14 01:22:27;;;;;;;11.88;4.10;;;12.20;99.90;;;;;;5052497;28;20064;-73
2022/05/14 01:27:52;;;;;;;10.50;3.42;;;12.50;99.90;;;;;;5051382;28;20049;-73
2022/05/14 01:30:18;;;;;;;11.70;3.25;;;12.50;99.90;;;;;;5050277;28;20080;-73
2022/05/14 01:32:47;;;;;;;11.25;3.72;;;12.30;99.90;;;;;;5035810;28;20044;-74
2022/05/14 01:35:16;;;;;;;12.25;3.50;;;12.20;99.90;;;;;;5035837;28;20041;-73
2022/05/14 01:37:43;;;;;;;10.05;4.22;;;12.20;99.90;;;;;;5034755;28;20029;-74
2022/05/14 01:40:09;;;;;;;13.32;4.22;;;12.30;99.90;;;;;;5052299;28;20484;-74
2022/05/14 01:42:34;;;;;;;10.63;3.70;;;12.30;99.90;;;;;;5051566;28;20128;-74
2022/05/14 01:45:00;;;;;;;11.15;4.20;;;12.40;99.90;;;;;;5035733;28;20086;-74
2022/05/14 01:47:25;;;;;;;8.05;3.58;;;12.40;99.90;;;;;;5034832;28;20374;-73
2022/05/14 01:49:51;;;;;;;13.57;3.95;;;12.40;99.90;;;;;;5052016;28;20072;-73
2022/05/14 01:52:16;;;;;;;11.77;3.63;;;12.30;99.90;;;;;;5052446;28;20090;-73
2022/05/14 01:54:42;;;;;;;13.23;4.07;;;12.40;99.90;;;;;;5034793;28;20154;-74
2022/05/14 01:57:08;;;;;;;11.52;3.42;;;12.40;99.90;;;;;;5034541;28;20033;-74
2022/05/14 01:59:33;;;;;;;13.30;4.47;;;12.40;99.90;;;;;;5051997;28;20044;-73
2022/05/14 02:02:00;;;;;;;12.02;4.10;;;12.30;99.90;;;;;;5035261;28;20056;-73
2022/05/14 02:04:26;;;;;;;13.90;4.28;;;12.20;99.90;;;;;;5051997;28;20130;-73
2022/05/14 02:06:52;;;;;;;12.57;4.38;;;12.20;99.90;;;;;;5034442;28;20064;-73
2022/05/14 02:09:19;;;;;;;12.35;4.00;;;12.20;99.90;;;;;;5035333;28;20033;-73
2022/05/14 02:11:45;;;;;;;12.27;4.55;;;12.20;99.90;;;;;;5034971;28;20443;-73
2022/05/14 02:14:11;;;;;;;15.57;4.18;;;12.20;99.90;;;;;;5035321;28;20048;-74
2022/05/14 02:16:37;;;;;;;10.27;4.20;;;12.20;99.90;;;;;;5051142;28;21516;-74
2022/05/14 02:19:04;;;;;;;11.20;4.00;;;12.10;99.90;;;;;;5052106;28;20547;-73
2022/05/14 02:21:30;;;;;;;14.68;4.45;;;12.10;99.90;;;;;;5035085;28;20500;-73
2022/05/14 02:23:56;;;;;;;10.18;4.18;;;12.10;99.90;;;;;;5035195;28;20041;-73
2022/05/14 02:26:23;;;;;;;13.80;3.85;;;12.20;99.90;;;;;;5033495;28;20447;-73
2022/05/14 02:28:49;;;;;;;11.38;3.83;;;12.00;99.90;;;;;;5015403;28;20128;-73
2022/05/14 02:31:14;;;;;;;11.80;4.18;;;11.90;99.90;;;;;;5031821;28;20564;-73
2022/05/14 02:33:40;;;;;;;14.77;4.25;;;11.90;99.90;;;;;;5050850;28;20397;-73
2022/05/14 02:36:10;;;;;;;11.05;4.25;;;12.00;99.90;;;;;;5033979;28;20033;-73
2022/05/14 02:38:36;;;;;;;12.43;4.55;;;12.00;99.90;;;;;;5019322;28;20041;-73
2022/05/14 02:41:04;;;;;;;10.73;4.15;;;12.10;99.90;;;;;;5027545;28;20068;-73
2022/05/14 02:43:32;;;;;;;11.27;4.45;;;12.00;99.90;;;;;;5053595;28;20041;-73
2022/05/14 02:45:58;;;;;;;10.38;3.88;;;11.80;99.90;;;;;;5038379;28;20397;-73
2022/05/14 02:48:23;;;;;;;12.98;4.18;;;11.70;99.90;;;;;;5037980;28;20041;-73
2022/05/14 02:50:49;;;;;;;12.77;4.53;;;11.60;99.90;;;;;;5055396;28;20087;-73
2022/05/14 02:53:14;;;;;;;15.27;5.07;;;11.50;99.90;;;;;;5038182;28;20071;-73
2022/05/14 02:55:41;;;;;;;15.23;5.15;;;11.50;99.90;;;;;;5052376;28;20061;-73
2022/05/14 02:58:06;;;;;;;12.35;4.82;;;11.60;99.90;;;;;;5037664;28;20029;-73
2022/05/14 03:00:32;;;;;;;10.77;4.93;;;11.50;99.90;;;;;;5055088;28;20469;-73
2022/05/14 03:02:57;;;;;;;14.57;5.25;;;11.70;99.90;;;;;;5037908;28;20041;-74
2022/05/14 03:05:23;;;;;;;15.63;6.38;;;11.70;99.90;;;;;;5055203;28;20037;-74
2022/05/14 03:07:49;;;;;;;16.13;4.97;;;11.80;99.90;;;;;;5037868;28;20060;-74
2022/05/14 03:10:16;;;;;;;15.65;5.00;;;11.80;99.90;;;;;;5055061;28;20114;-74
2022/05/14 03:12:42;;;;;;;12.98;4.60;;;11.60;99.90;;;;;;5055433;28;20047;-73
2022/05/14 03:15:09;;;;;;;14.63;5.32;;;11.60;99.90;;;;;;5055092;28;20055;-73
2022/05/14 03:17:35;;;;;;;14.60;5.35;;;11.50;99.90;;;;;;5051057;28;20041;-73
2022/05/14 03:20:07;;;;;;;15.10;5.95;;;11.40;99.90;;;;;;5053106;28;20555;-73
2022/05/14 03:22:38;;;;;;;12.75;6.00;;;11.40;99.90;;;;;;5051380;28;20041;-73
2022/05/14 03:25:06;;;;;;;12.75;5.18;;;11.40;99.90;;;;;;5054787;28;20037;-73
2022/05/14 03:27:32;;;;;;;14.10;5.30;;;11.30;99.90;;;;;;5026016;28;20513;-73
2022/05/14 03:29:57;;;;;;;13.80;5.88;;;11.20;99.90;;;;;;5036468;28;20060;-73
2022/05/14 03:32:24;;;;;;;15.13;6.15;;;11.30;99.90;;;;;;5011793;28;20493;-73
2022/05/14 03:34:50;;;;;;;21.35;6.18;;;11.30;99.90;;;;;;5026816;28;20714;-73
2022/05/14 03:37:16;;;;;;;18.45;6.25;;;11.50;99.90;;;;;;5044770;28;20052;-73
2022/05/14 03:39:42;;;;;;;12.95;5.88;;;11.60;99.90;;;;;;5037846;28;20045;-73
2022/05/14 03:42:07;;;;;;;15.40;6.38;;;11.60;99.90;;;;;;5054435;28;20060;-73
2022/05/14 03:44:33;;;;;;;16.08;5.78;;;11.50;99.90;;;;;;5054686;28;20048;-73
2022/05/14 03:46:59;;;;;;;15.50;5.80;;;11.50;99.90;;;;;;5048523;28;20059;-73
2022/05/14 03:49:25;;;;;;;14.98;5.93;;;11.60;99.90;;;;;;5026065;28;20106;-73
2022/05/14 03:51:52;;;;;;;15.63;6.13;;;11.60;99.90;;;;;;5027709;28;21452;-73
2022/05/14 03:54:17;;;;;;;13.68;5.78;;;11.70;99.90;;;;;;5032108;28;20041;-73
2022/05/14 03:56:43;;;;;;;15.68;6.35;;;11.70;99.90;;;;;;5026210;28;20405;-73
2022/05/14 03:59:09;;;;;;;17.13;6.13;;;11.60;99.90;;;;;;5025707;28;20048;-73
2022/05/14 04:01:36;;;;;;;16.08;5.57;;;11.60;99.90;;;;;;5026366;28;20531;-73
2022/05/14 04:04:02;;;;;;;15.82;6.03;;;11.50;99.90;;;;;;5011448;28;20647;-73
2022/05/14 04:06:27;;;;;;;20.63;7.03;;;11.50;99.90;;;;;;5030906;28;20051;-73
2022/05/14 04:08:53;;;;;;;12.02;5.20;;;11.60;99.90;;;;;;5026249;28;20037;-73
2022/05/14 04:11:18;;;;;;;17.05;6.22;;;11.50;99.90;;;;;;5009853;28;20037;-73
2022/05/14 04:13:44;;;;;;;17.80;6.15;;;11.50;99.90;;;;;;5025968;28;20416;-73
2022/05/14 04:16:10;;;;;;;18.65;6.85;;;11.50;99.90;;;;;;5025487;28;20033;-73
2022/05/14 04:18:36;;;;;;;17.80;6.60;;;11.70;99.90;;;;;;5025841;28;20503;-73
2022/05/14 04:21:02;;;;;;;15.85;6.43;;;11.80;99.90;;;;;;5013913;28;20045;-73
2022/05/14 04:23:29;;;;;;;12.45;6.22;;;11.80;99.90;;;;;;5035939;28;20037;-73
2022/05/14 04:25:55;;;;;;;15.38;6.50;;;11.70;99.90;;;;;;5032409;28;20044;-73
2022/05/14 04:28:22;;;;;;;17.05;6.38;;;11.60;99.90;;;;;;5053570;28;20075;-73
2022/05/14 04:30:48;;;;;;;17.33;6.78;;;11.70;99.90;;;;;;5036851;28;20029;-73
2022/05/14 04:33:14;;;;;;;17.65;6.32;;;11.60;99.90;;;;;;5053571;28;20045;-73
2022/05/14 04:35:40;;;;;;;18.63;7.10;;;11.70;99.90;;;;;;5037321;28;20045;-72
2022/05/14 04:38:07;;;;;;;21.83;7.00;;;11.80;99.90;;;;;;5035489;28;20048;-73
2022/05/14 04:40:32;;;;;;;16.75;6.35;;;11.80;99.90;;;;;;5030826;28;20041;-73
2022/05/14 04:42:58;;;;;;;16.77;6.82;;;11.80;99.90;;;;;;5012930;28;20045;-73
2022/05/14 04:45:23;;;;;;;16.83;6.95;;;11.80;99.90;;;;;;5025743;28;20045;-73
2022/05/14 04:47:49;;;;;;;19.83;7.22;;;11.70;99.90;;;;;;5013962;28;20048;-73
2022/05/14 04:50:16;;;;;;;20.20;7.65;;;11.70;99.90;;;;;;5025651;28;20052;-72
2022/05/14 04:52:42;;;;;;;17.58;7.00;;;11.60;99.90;;;;;;5009743;28;20049;-72
2022/05/14 04:55:09;;;;;;;20.88;8.82;;;11.60;99.90;;;;;;5017781;28;20037;-72
2022/05/14 04:57:35;;;;;;;18.20;7.10;;;11.60;99.90;;;;;;5025332;28;20051;-73
2022/05/14 05:00:01;;;;;;;19.15;7.60;;;11.60;99.90;;;;;;5034345;28;20106;-73
2022/05/14 05:05:12;;;;;;;19.63;7.13;;;11.70;99.90;;;;;;5024484;28;20509;-73
2022/05/14 05:07:37;;;;;;;19.90;7.55;;;11.60;99.90;;;;;;5026530;28;20481;-72
2022/05/14 05:10:03;;;;;;;20.55;7.80;;;11.70;99.90;;;;;;5025519;28;20044;-72
2022/05/14 05:12:29;;;;;;;18.63;7.15;;;11.80;99.90;;;;;;5023932;28;20041;-73
2022/05/14 05:14:55;;;;;;;22.65;7.72;;;11.70;99.90;;;;;;5025070;28;20661;-73
2022/05/14 05:17:20;;;;;;;23.15;7.82;;;11.80;99.90;;;;;;5024992;28;20091;-73
2022/05/14 05:19:46;;;;;;;20.85;8.05;;;11.90;99.90;;;;;;5030180;28;20037;-73
2022/05/14 05:22:12;;;;;;;20.98;7.93;;;11.90;99.90;;;;;;5016761;28;20388;-73
2022/05/14 05:24:38;;;;;;;24.38;8.20;;;12.00;99.90;;;;;;5046411;28;20123;-73
2022/05/14 05:27:04;;;;;;;24.60;7.95;;;12.20;99.90;;;;;;5026104;28;20041;-73
2022/05/14 05:29:30;;;;;;;23.98;7.80;;;12.10;99.90;;;;;;5037663;28;20397;-73
2022/05/14 05:31:56;;;;;;;22.45;7.22;;;12.30;99.90;;;;;;5047164;28;20120;-73
2022/05/14 05:34:21;;;;;;;21.75;7.85;;;12.30;99.90;;;;;;5008782;28;20916;-73
2022/05/14 05:36:47;;;;;;;21.00;6.80;;;12.40;99.90;;;;;;5011611;28;20032;-72
2022/05/14 05:39:13;;;;;;;21.95;8.85;;;12.50;99.90;;;;;;5010759;28;20037;-73
2022/05/14 05:41:38;;;;;;;20.33;8.65;;;12.40;99.90;;;;;;5023836;28;20721;-73
2022/05/14 05:44:04;;;;;;;22.77;8.82;;;12.40;99.90;;;;;;5008585;28;20049;-73
2022/05/14 05:46:32;;;;;;;21.77;8.40;;;12.50;99.90;;;;;;5012217;28;20041;-73
2022/05/14 05:48:58;;;;;;;17.48;7.70;;;12.50;99.90;;;;;;5007583;28;20172;-73
2022/05/14 05:51:23;;;;;;;26.10;8.82;;;12.40;99.90;;;;;;5007962;28;20446;-73
2022/05/14 05:56:56;;;;;;;27.10;8.90;;;12.50;99.90;;;;;;5027958;28;20053;-73
2022/05/14 05:59:22;;;;;;;23.25;8.60;;;12.60;99.90;;;;;;5024219;28;20493;-73
2022/05/14 06:01:47;;;;;;;27.52;8.57;;;12.60;99.90;;;;;;5007305;28;20398;-73
2022/05/14 06:04:14;;;;;;;23.77;7.82;;;12.70;99.90;;;;;;5024321;28;20114;-73
2022/05/14 06:06:42;;;;;;;30.40;9.95;;;12.80;99.90;;;;;;5026386;28;20045;-73
2022/05/14 06:09:10;;;;;;;25.70;9.60;;;12.80;99.90;;;;;;5033953;28;20493;-72
2022/05/14 06:11:36;;;;;;;23.83;8.95;;;12.90;99.90;;;;;;5024229;28;20041;-73
2022/05/14 06:14:02;;;;;;;26.88;8.65;;;12.90;99.90;;;;;;5042647;28;20026;-73
2022/05/14 06:16:27;;;;;;;24.05;8.90;;;12.80;99.90;;;;;;5050288;28;20059;-73
2022/05/14 06:18:53;;;;;;;25.90;8.98;;;12.80;99.90;;;;;;5050727;28;20051;-73
2022/05/14 06:21:19;;;;;;;23.42;8.05;;;12.80;99.90;;;;;;5035294;28;20059;-73
2022/05/14 06:23:44;;;;;;;21.35;8.25;;;12.80;99.90;;;;;;5052008;28;20444;-73
2022/05/14 06:26:10;;;;;;;29.17;7.88;;;12.90;99.90;;;;;;5034587;28;20075;-73
2022/05/14 06:28:36;;;;;;;26.25;8.48;;;13.00;99.90;;;;;;5035104;28;20436;-73
2022/05/14 06:31:01;;;;;;;21.58;8.02;;;13.10;99.90;;;;;;5035176;28;20063;-73
2022/05/14 06:33:28;;;;;;;25.80;8.80;;;13.20;99.90;;;;;;5049581;28;20073;-73
2022/05/14 06:35:54;;;;;;;22.08;7.65;;;13.40;99.90;;;;;;5049062;28;20378;-73
2022/05/14 06:38:19;;;;;;;25.50;8.10;;;13.50;99.90;;;;;;5031416;28;20063;-74
2022/05/14 06:40:46;;;;;;;25.70;7.80;;;13.70;99.90;;;;;;5032364;28;20034;-74
2022/05/14 06:43:15;;;;;;;22.85;7.45;;;13.80;99.90;;;;;;5034153;28;20605;-73
2022/05/14 06:45:44;;;;;;;24.80;7.85;;;14.00;99.90;;;;;;5051902;28;20037;-73
2022/05/14 06:48:10;;;;;;;23.60;7.75;;;14.00;99.90;;;;;;5034911;28;20493;-73
2022/05/14 06:50:45;;;;;;;24.85;7.18;;;14.20;99.90;;;;;;5034883;28;20056;-72
2022/05/14 06:53:13;;;;;;;22.55;6.45;;;14.30;99.90;;;;;;5051468;28;20037;-72
2022/05/14 06:55:41;;;;;;;21.35;6.63;;;14.50;99.90;;;;;;5034768;28;20037;-72
2022/05/14 06:58:09;;;;;;;21.55;6.13;;;14.60;99.90;;;;;;5051572;28;20090;-72
2022/05/14 07:00:35;;;;;;;23.27;6.05;;;14.70;99.90;;;;;;5034893;28;20079;-73
2022/05/14 07:08:29;;;;;;;21.20;4.63;;;15.00;99.90;;;;;;5051261;28;20049;-73
2022/05/14 07:10:55;;;;;;;21.58;5.35;;;15.20;99.90;;;;;;5051489;28;20424;-73
2022/05/14 07:13:20;;;;;;;21.63;5.15;;;15.30;99.90;;;;;;5034646;28;20048;-71
2022/05/14 07:15:46;;;;;;;17.73;4.70;;;15.30;99.90;;;;;;5034772;28;20444;-71
2022/05/14 07:18:11;;;;;;;23.77;5.70;;;15.50;99.90;;;;;;5034892;28;20040;-72
2022/05/14 07:20:37;;;;;;;19.50;4.32;;;15.60;99.90;;;;;;5034658;28;20052;-73
2022/05/14 07:23:03;;;;;;;18.20;4.78;;;15.60;99.90;;;;;;5052479;28;20044;-73
2022/05/14 07:25:29;;;;;;;19.30;5.05;;;15.60;99.90;;;;;;5055003;28;20048;-73
2022/05/14 07:27:54;;;;;;;16.20;4.45;;;15.50;99.90;;;;;;5038284;28;20052;-73
2022/05/14 07:30:20;;;;;;;16.20;4.57;;;15.50;99.90;;;;;;5038018;28;20040;-72
2022/05/14 07:32:46;;;;;;;17.05;5.13;;;15.50;99.90;;;;;;5054799;28;20076;-72
2022/05/14 07:35:12;;;;;;;16.60;4.90;;;15.50;99.90;;;;;;5038373;28;20397;-72
2022/05/14 07:37:46;;;;;;;21.55;4.90;;;15.50;99.90;;;;;;5054711;28;20552;-71
2022/05/14 07:40:19;;;;;;;20.27;5.25;;;15.60;99.90;;;;;;5038243;28;20420;-72
2022/05/14 07:42:53;;;;;;;18.48;4.90;;;15.70;99.90;;;;;;5054849;28;20045;-72
2022/05/14 07:45:23;;;;;;;17.77;4.63;;;15.90;99.90;;;;;;5054615;28;20037;-71
2022/05/14 07:47:50;;;;;;;16.02;5.38;;;16.00;99.90;;;;;;5038119;28;20127;-71
2022/05/14 07:50:17;;;;;;;23.70;4.57;;;16.10;99.90;;;;;;5054443;28;20037;-71
2022/05/14 07:52:43;;;;;;;20.23;4.72;;;16.10;99.90;;;;;;5037817;28;20090;-72
2022/05/14 07:55:09;;;;;;;18.63;4.45;;;16.20;99.90;;;;;;5054319;28;20037;-71
2022/05/14 07:57:35;;;;;;;16.25;4.45;;;16.20;99.90;;;;;;5037858;28;20123;-72
2022/05/14 08:00:01;;;;;;;19.88;5.00;;;16.30;99.90;;;;;;5037760;28;20041;-71
2022/05/14 08:02:31;;;;;;;24.08;5.30;;;16.40;99.90;;;;;;5054186;28;20159;-70
2022/05/14 08:04:58;;;;;;;21.08;5.15;;;16.40;99.90;;;;;;5054539;28;20075;-71
2022/05/14 08:07:24;;;;;;;24.40;4.88;;;16.50;99.90;;;;;;5037543;28;20120;-71
2022/05/14 08:09:49;;;;;;;18.65;5.20;;;16.60;99.90;;;;;;5053947;28;20564;-71
2022/05/14 08:12:15;;;;;;;20.25;4.68;;;16.70;99.90;;;;;;5037536;28;20041;-71
2022/05/14 08:14:41;;;;;;;22.27;5.65;;;16.70;99.90;;;;;;5053835;28;20082;-72
2022/05/14 08:17:08;;;;;;;22.55;5.05;;;16.90;99.90;;;;;;5037316;28;20439;-72
2022/05/14 08:19:34;;;;;;;20.83;5.97;;;16.90;99.90;;;;;;5054032;28;20041;-72
2022/05/14 08:24:43;;;;;;;20.13;5.03;;;17.10;99.90;;;;;;5051817;28;20041;-75
2022/05/14 08:27:10;;;;;;;18.48;4.40;;;17.10;99.90;;;;;;5052366;28;20041;-75
2022/05/14 08:29:37;;;;;;;24.10;5.28;;;17.20;99.90;;;;;;5019631;28;20064;-76
2022/05/14 08:32:04;;;;;;;18.10;5.13;;;17.30;99.90;;;;;;5017542;28;20041;-75
2022/05/14 08:34:31;;;;;;;18.10;4.70;;;17.30;99.90;;;;;;5020951;28;20040;-75
2022/05/14 08:36:57;;;;;;;16.80;4.57;;;17.30;99.90;;;;;;5053868;28;20041;-75
2022/05/14 08:39:24;;;;;;;21.83;4.97;;;17.20;99.90;;;;;;5053615;28;20045;-75
2022/05/14 08:41:52;;;;;;;21.35;5.28;;;17.40;99.90;;;;;;5053758;28;20488;-72
2022/05/14 08:44:22;;;;;;;17.10;4.35;;;17.50;99.90;;;;;;5051636;28;20466;-73
2022/05/14 08:46:56;;;;;;;19.92;4.38;;;17.40;99.90;;;;;;5053336;28;20037;-72
2022/05/14 08:49:31;;;;;;;21.58;5.00;;;17.50;99.90;;;;;;5052946;28;20047;-72
2022/05/14 08:51:57;;;;;;;17.35;4.18;;;17.60;99.90;;;;;;5016932;28;20133;-73
2022/05/14 08:54:23;;;;;;;16.52;4.60;;;17.40;99.90;;;;;;5037147;28;20040;-72
2022/05/14 08:57:12;;;;;;;18.63;4.82;;;17.40;99.90;;;;;;5053222;28;20033;-72
2022/05/14 08:59:47;;;;;;;17.52;5.00;;;17.40;99.90;;;;;;5053245;28;20037;-72
2022/05/14 09:02:21;;;;;;;20.67;4.70;;;17.50;99.90;;;;;;5052090;28;20057;-72
2022/05/14 09:04:49;;;;;;;20.13;5.85;;;17.60;99.90;;;;;;5051436;28;20048;-72
2022/05/14 09:07:15;;;;;;;18.67;4.32;;;17.60;99.90;;;;;;5053059;28;20094;-72
2022/05/14 09:09:49;;;;;;;19.00;5.47;;;17.50;99.90;;;;;;5052222;28;20037;-73
2022/05/14 09:12:18;;;;;;;18.80;3.92;;;17.60;99.90;;;;;;5036242;28;20044;-72
2022/05/14 09:14:44;;;;;;;19.00;4.63;;;17.60;99.90;;;;;;5036192;28;20033;-73
2022/05/14 09:17:20;;;;;;;17.40;4.53;;;17.80;99.90;;;;;;5053181;28;20436;-73
2022/05/14 09:19:48;;;;;;;19.48;4.50;;;18.00;99.90;;;;;;5051227;28;20047;-73
2022/05/14 09:22:23;;;;;;;20.05;4.65;;;18.30;99.90;;;;;;5052648;28;20043;-73
2022/05/14 09:24:54;;;;;;;15.68;3.88;;;18.30;99.90;;;;;;5035373;28;20041;-73
2022/05/14 09:27:47;;;;;;;19.15;4.50;;;18.20;99.90;;;;;;5051668;28;20115;-73
2022/05/14 09:30:37;;;;;;;20.08;4.85;;;18.30;99.90;;;;;;5034947;28;20496;-73
2022/05/14 09:33:04;;;;;;;18.25;4.32;;;18.30;99.90;;;;;;5036219;28;20037;-73
2022/05/14 09:35:33;;;;;;;16.30;4.07;;;18.20;99.90;;;;;;5034474;28;20401;-73
2022/05/14 09:38:18;;;;;;;20.13;4.18;;;18.30;99.90;;;;;;5052417;28;20047;-73
2022/05/14 09:40:43;;;;;;;17.33;4.55;;;18.50;99.90;;;;;;5035485;28;20057;-73
2022/05/14 09:43:15;;;;;;;15.20;3.97;;;18.60;99.90;;;;;;5052188;28;20037;-73
2022/05/14 09:45:57;;;;;;;18.48;4.20;;;18.70;99.90;;;;;;5035681;28;20389;-73
2022/05/14 09:48:49;;;;;;;14.63;3.92;;;18.80;99.90;;;;;;5051837;28;20083;-73
2022/05/14 09:51:28;;;;;;;19.00;4.30;;;18.90;99.90;;;;;;5033296;28;20049;-74
2022/05/14 09:53:54;;;;;;;17.02;4.30;;;18.90;98.00;;;;;;5034670;28;20032;-73
2022/05/14 09:56:30;;;;;;;17.42;3.90;;;19.00;99.90;;;;;;5049598;28;20029;-73
2022/05/14 09:59:20;;;;;;;16.65;4.05;;;19.20;99.90;;;;;;5050527;28;20524;-74
2022/05/14 10:01:53;;;;;;;17.67;4.47;;;19.20;98.40;;;;;;5035198;28;20519;-73
2022/05/14 10:04:48;;;;;;;19.90;4.70;;;18.90;99.80;;;;;;5032652;28;20128;-74
2022/05/14 10:07:37;;;;;;;18.17;4.15;;;19.10;99.90;;;;;;5038638;28;20041;-74
2022/05/14 10:10:38;;;;;;;16.27;4.47;;;19.20;99.20;;;;;;5031400;28;20561;-71
2022/05/14 10:13:13;;;;;;;16.42;5.30;;;19.10;98.20;;;;;;5032112;28;20083;-71
2022/05/14 10:15:47;;;;;;;19.27;5.00;;;19.10;99.60;;;;;;5034710;28;20033;-71
2022/05/14 10:18:27;;;;;;;18.83;3.83;;;19.20;99.50;;;;;;5046812;28;20527;-71
2022/05/14 10:21:07;;;;;;;23.05;4.90;;;19.20;99.80;;;;;;5050903;28;20110;-72
2022/05/14 10:27:15;;;;;;;16.60;4.10;;;18.90;98.80;;;;;;5047928;28;20076;-72
2022/05/14 10:30:07;;;;;;;18.00;4.35;;;18.90;98.90;;;;;;5032012;28;20045;-72
2022/05/14 10:32:34;;;;;;;20.33;4.82;;;18.80;99.30;;;;;;5022908;28;20056;-72
2022/05/14 10:35:19;;;;;;;17.60;4.45;;;18.70;99.90;;;;;;5034318;28;20029;-72
2022/05/14 10:37:53;;;;;;;22.48;5.35;;;18.90;99.90;;;;;;5050699;28;20049;-73
2022/05/14 10:40:42;;;;;;;19.02;4.32;;;19.00;99.70;;;;;;5050386;28;20119;-73
2022/05/14 10:43:46;;;;;;;16.55;4.30;;;19.00;99.60;;;;;;5048696;28;20037;-72
2022/05/14 10:46:20;;;;;;;18.42;4.57;;;18.90;98.70;;;;;;5045924;28;20055;-73
2022/05/14 10:49:00;;;;;;;19.05;4.85;;;18.80;99.70;;;;;;5047885;28;20056;-72
2022/05/14 10:51:32;;;;;;;17.73;4.47;;;18.80;99.20;;;;;;5050849;28;20104;-73
2022/05/14 10:54:02;;;;;;;16.70;4.28;;;18.80;98.70;;;;;;5034280;28;20059;-73
2022/05/14 10:56:34;;;;;;;17.95;3.95;;;18.80;99.10;;;;;;5033351;28;20384;-72
2022/05/14 10:59:09;;;;;;;17.98;4.32;;;18.80;99.40;;;;;;5053597;28;20119;-72
2022/05/14 11:01:46;;;;;;;20.77;4.78;;;18.80;99.40;;;;;;5054414;28;20060;-72
2022/05/14 11:04:32;;;;;;;16.67;4.63;;;18.70;99.90;;;;;;5050513;28;20059;-72
2022/05/14 11:07:06;;;;;;;15.48;4.20;;;18.80;99.00;;;;;;5054648;28;20048;-72
2022/05/14 11:09:44;;;;;;;18.50;4.43;;;19.00;99.90;;;;;;5050127;28;20119;-72
2022/05/14 11:12:28;;;;;;;18.80;4.40;;;19.30;99.90;;;;;;5054738;28;20052;-72
2022/05/14 11:14:56;;;;;;;17.60;3.80;;;19.50;98.90;;;;;;5035891;28;20427;-72
2022/05/14 11:17:34;;;;;;;17.98;4.18;;;19.50;97.80;;;;;;5033172;28;20033;-72
2022/05/14 11:20:06;;;;;;;17.88;5.15;;;19.50;97.60;;;;;;5026216;28;20029;-72
2022/05/14 11:22:36;;;;;;;17.02;3.97;;;19.50;98.60;;;;;;5035105;28;20045;-72
2022/05/14 11:25:17;;;;;;;18.25;4.32;;;19.50;98.30;;;;;;5037289;28;20049;-73
2022/05/14 11:28:22;;;;;;;14.75;4.25;;;19.50;98.50;;;;;;5053129;28;20560;-72
2022/05/14 11:30:48;;;;;;;19.13;4.60;;;19.50;96.10;;;;;;5036045;28;20041;-72
2022/05/14 11:33:23;;;;;;;19.65;4.55;;;19.40;97.80;;;;;;5050268;28;20049;-72
2022/05/14 11:35:51;;;;;;;22.92;4.82;;;19.50;95.90;;;;;;5052381;28;20048;-72
2022/05/14 11:38:32;;;;;;;17.40;4.80;;;19.50;96.70;;;;;;5036468;28;20047;-72
2022/05/14 11:41:09;;;;;;;17.85;4.43;;;19.70;97.80;;;;;;5036866;28;20097;-73
2022/05/14 11:43:42;;;;;;;18.42;4.65;;;19.80;96.90;;;;;;5035321;28;20052;-73
2022/05/14 11:46:39;;;;;;;18.98;4.50;;;20.00;96.40;;;;;;5032807;28;20041;-72
2022/05/14 11:49:24;;;;;;;21.00;4.38;;;20.10;96.10;;;;;;5036094;28;20056;-72
2022/05/14 11:51:56;;;;;;;20.10;4.43;;;20.10;96.20;;;;;;5033228;28;20047;-73
2022/05/14 11:54:49;;;;;;;17.35;4.90;;;20.00;94.20;;;;;;5035637;28;20028;-73
2022/05/14 11:57:20;;;;;;;19.25;4.30;;;19.60;94.50;;;;;;5036433;28;20552;-73
2022/05/14 11:59:58;;;;;;;19.02;4.25;;;19.60;96.00;;;;;;5052765;28;20408;-73
2022/05/14 12:02:51;;;;;;;20.45;4.68;;;19.80;95.30;;;;;;5052515;28;20732;-73
2022/05/14 12:05:29;;;;;;;19.48;4.72;;;19.90;93.00;;;;;;5052543;28;20067;-73
2022/05/14 12:08:36;;;;;;;14.63;3.58;;;19.80;93.80;;;;;;5052223;28;20505;-73
2022/05/14 12:11:08;;;;;;;15.65;4.10;;;19.60;96.00;;;;;;5052622;28;20041;-73
2022/05/14 12:13:54;;;;;;;18.42;4.25;;;19.60;95.70;;;;;;5034201;28;20060;-73
2022/05/14 12:16:31;;;;;;;15.48;4.70;;;19.50;94.50;;;;;;5034738;28;20037;-72
2022/05/14 12:18:59;;;;;;;16.92;5.50;;;19.50;95.60;;;;;;5051653;28;20126;-71
2022/05/14 12:21:25;;;;;;;16.98;4.10;;;19.30;96.30;;;;;;5035252;28;20079;-71
2022/05/14 12:23:50;;;;;;;17.20;4.28;;;19.20;94.60;;;;;;5034437;28;20036;-71
2022/05/14 12:26:33;;;;;;;16.13;4.57;;;19.10;95.70;;;;;;5052323;28;20066;-71
2022/05/14 12:29:11;;;;;;;18.38;4.85;;;19.20;96.30;;;;;;5050580;28;20402;-71
2022/05/14 12:34:21;;;;;;;17.92;4.35;;;19.00;93.40;;;;;;5052338;28;20431;-71
2022/05/14 12:36:51;;;;;;;19.73;4.65;;;19.00;97.20;;;;;;5052065;28;20041;-73
2022/05/14 12:39:19;;;;;;;18.25;4.35;;;19.00;97.60;;;;;;5051924;28;20048;-72
2022/05/14 12:41:48;;;;;;;17.90;4.53;;;19.00;97.60;;;;;;5035003;28;20080;-73
2022/05/14 12:44:34;;;;;;;16.17;4.93;;;19.00;97.90;;;;;;5035539;28;20063;-72
2022/05/14 12:47:01;;;;;;;16.40;4.45;;;19.10;96.80;;;;;;5051773;28;20043;-72
2022/05/14 12:49:30;;;;;;;16.27;3.85;;;19.10;96.60;;;;;;5051312;28;20041;-72
2022/05/14 12:51:59;;;;;;;18.88;4.30;;;19.10;97.30;;;;;;5051910;28;20044;-72
2022/05/14 12:54:27;;;;;;;14.20;4.05;;;19.30;97.00;;;;;;5034585;28;20409;-72
2022/05/14 12:56:57;;;;;;;19.98;4.43;;;19.50;96.80;;;;;;5034847;28;20492;-72
2022/05/14 12:59:23;;;;;;;13.93;3.70;;;19.60;94.20;;;;;;5035827;28;20489;-73
2022/05/14 13:01:51;;;;;;;13.68;4.80;;;19.50;95.10;;;;;;5050180;28;20056;-72
2022/05/14 13:04:23;;;;;;;15.30;3.63;;;19.40;94.60;;;;;;5051641;28;20146;-72
2022/05/14 13:06:49;;;;;;;19.00;4.50;;;19.50;95.20;;;;;;5036080;28;20119;-72
2022/05/14 13:09:22;;;;;;;18.23;4.43;;;19.40;94.30;;;;;;5052117;28;20045;-72
2022/05/14 13:11:50;;;;;;;17.95;4.10;;;19.40;93.50;;;;;;5052568;28;20072;-72
2022/05/14 13:14:23;;;;;;;14.38;4.00;;;19.20;94.90;;;;;;5052109;28;20047;-72